sensor_id;sensor_type;location;lat;lon;timestamp;P1;durP1;ratioP1;P2;durP2;ratioP2
41657;SDS011;27347;57.132;-2.084;2022-07-06T00:01:46;3.38;;;1.20;;
41657;SDS011;27347;57.132;-2.084;2022-07-06T00:04:12;7.82;;;2.28;;
41657;SDS011;27347;57.132;-2.084;2022-07-06T00:06:37;10.82;;;3.58;;
41657;SDS011;27347;57.132;-2.084;2022-07-06T00:09:03;6.55;;;2.50;;
41657;SDS011;27347;57.132;-2.084;2022-07-06T00:11:29;6.97;;;1.45;;
41657;SDS011;27347;57.132;-2.084;2022-07-06T00:13:54;7.28;;;2.72;;
41657;SDS011;27347;57.132;-2.084;2022-07-06T00:16:21;3.92;;;2.03;;
41657;SDS011;27347;57.132;-2.084;2022-07-06T00:18:47;7.32;;;2.95;;
41657;SDS011;27347;57.132;-2.084;2022-07-06T00:21:12;3.80;;;1.63;;
41657;SDS011;27347;57.132;-2.084;2022-07-06T00:23:38;3.95;;;1.80;;
41657;SDS011;27347;57.132;-2.084;2022-07-06T00:26:03;4.40;;;1.40;;
41657;SDS011;27347;57.132;-2.084;2022-07-06T00:28:28;3.20;;;1.60;;
41657;SDS011;27347;57.132;-2.084;2022-07-06T00:30:54;4.32;;;1.40;;
41657;SDS011;27347;57.132;-2.084;2022-07-06T00:33:20;2.25;;;1.00;;
41657;SDS011;27347;57.132;-2.084;2022-07-06T00:35:46;5.25;;;1.27;;
41657;SDS011;27347;57.132;-2.084;2022-07-06T00:38:11;4.25;;;1.25;;
41657;SDS011;27347;57.132;-2.084;2022-07-06T00:40:37;2.13;;;0.80;;
41657;SDS011;27347;57.132;-2.084;2022-07-06T00:43:02;1.40;;;1.00;;
41657;SDS011;27347;57.132;-2.084;2022-07-06T00:45:28;2.33;;;1.00;;
41657;SDS011;27347;57.132;-2.084;2022-07-06T00:47:53;1.70;;;1.00;;
41657;SDS011;27347;57.132;-2.084;2022-07-06T00:50:19;2.13;;;1.00;;
41657;SDS011;27347;57.132;-2.084;2022-07-06T00:55:14;4.47;;;1.13;;
41657;SDS011;27347;57.132;-2.084;2022-07-06T00:57:41;2.53;;;1.00;;
41657;SDS011;27347;57.132;-2.084;2022-07-06T01:00:08;4.35;;;1.00;;
41657;SDS011;27347;57.132;-2.084;2022-07-06T01:02:35;7.10;;;1.35;;
41657;SDS011;27347;57.132;-2.084;2022-07-06T01:05:02;2.75;;;0.90;;
41657;SDS011;27347;57.132;-2.084;2022-07-06T01:07:29;4.75;;;0.90;;
41657;SDS011;27347;57.132;-2.084;2022-07-06T01:09:54;2.35;;;1.13;;
41657;SDS011;27347;57.132;-2.084;2022-07-06T01:12:20;6.07;;;1.20;;
41657;SDS011;27347;57.132;-2.084;2022-07-06T01:14:45;4.78;;;1.10;;
41657;SDS011;27347;57.132;-2.084;2022-07-06T01:17:12;2.63;;;1.00;;
41657;SDS011;27347;57.132;-2.084;2022-07-06T01:19:38;2.58;;;0.75;;
41657;SDS011;27347;57.132;-2.084;2022-07-06T01:22:04;4.40;;;1.00;;
41657;SDS011;27347;57.132;-2.084;2022-07-06T01:24:29;3.50;;;0.93;;
41657;SDS011;27347;57.132;-2.084;2022-07-06T01:26:55;3.05;;;1.00;;
41657;SDS011;27347;57.132;-2.084;2022-07-06T01:29:20;2.55;;;1.00;;
41657;SDS011;27347;57.132;-2.084;2022-07-06T01:31:46;2.25;;;1.27;;
41657;SDS011;27347;57.132;-2.084;2022-07-06T01:34:13;4.53;;;1.17;;
41657;SDS011;27347;57.132;-2.084;2022-07-06T01:36:40;2.45;;;0.90;;
41657;SDS011;27347;57.132;-2.084;2022-07-06T01:39:05;2.10;;;1.02;;
41657;SDS011;27347;57.132;-2.084;2022-07-06T01:41:33;2.95;;;0.90;;
41657;SDS011;27347;57.132;-2.084;2022-07-06T01:43:58;2.78;;;1.10;;
41657;SDS011;27347;57.132;-2.084;2022-07-06T01:46:23;2.47;;;1.00;;
41657;SDS011;27347;57.132;-2.084;2022-07-06T01:48:49;3.28;;;1.20;;
41657;SDS011;27347;57.132;-2.084;2022-07-06T01:51:14;1.75;;;0.77;;
41657;SDS011;27347;57.132;-2.084;2022-07-06T01:53:40;4.35;;;1.10;;
41657;SDS011;27347;57.132;-2.084;2022-07-06T01:56:05;1.60;;;1.00;;
41657;SDS011;27347;57.132;-2.084;2022-07-06T01:58:31;1.73;;;0.90;;
41657;SDS011;27347;57.132;-2.084;2022-07-06T02:00:57;3.63;;;1.17;;
41657;SDS011;27347;57.132;-2.084;2022-07-06T02:03:23;3.67;;;1.10;;
41657;SDS011;27347;57.132;-2.084;2022-07-06T02:05:48;3.55;;;1.20;;
41657;SDS011;27347;57.132;-2.084;2022-07-06T02:08:14;4.90;;;1.25;;
41657;SDS011;27347;57.132;-2.084;2022-07-06T02:10:39;2.13;;;0.98;;
41657;SDS011;27347;57.132;-2.084;2022-07-06T02:13:05;5.55;;;0.80;;
41657;SDS011;27347;57.132;-2.084;2022-07-06T02:15:30;6.05;;;1.40;;
41657;SDS011;27347;57.132;-2.084;2022-07-06T02:17:56;1.02;;;0.85;;
41657;SDS011;27347;57.132;-2.084;2022-07-06T02:20:21;3.70;;;0.90;;
41657;SDS011;27347;57.132;-2.084;2022-07-06T02:22:47;1.80;;;1.10;;
41657;SDS011;27347;57.132;-2.084;2022-07-06T02:25:12;2.35;;;0.90;;
41657;SDS011;27347;57.132;-2.084;2022-07-06T02:27:37;1.35;;;0.98;;
41657;SDS011;27347;57.132;-2.084;2022-07-06T02:30:03;2.38;;;0.95;;
41657;SDS011;27347;57.132;-2.084;2022-07-06T02:32:30;2.58;;;0.90;;
41657;SDS011;27347;57.132;-2.084;2022-07-06T02:34:55;2.15;;;0.70;;
41657;SDS011;27347;57.132;-2.084;2022-07-06T02:37:21;1.65;;;0.70;;
41657;SDS011;27347;57.132;-2.084;2022-07-06T02:39:46;1.88;;;0.90;;
41657;SDS011;27347;57.132;-2.084;2022-07-06T02:42:12;1.50;;;0.80;;
41657;SDS011;27347;57.132;-2.084;2022-07-06T02:44:38;1.98;;;0.93;;
41657;SDS011;27347;57.132;-2.084;2022-07-06T02:47:03;5.50;;;1.23;;
41657;SDS011;27347;57.132;-2.084;2022-07-06T02:49:28;3.47;;;1.00;;
41657;SDS011;27347;57.132;-2.084;2022-07-06T02:51:54;3.40;;;1.00;;
41657;SDS011;27347;57.132;-2.084;2022-07-06T02:54:19;2.42;;;0.93;;
41657;SDS011;27347;57.132;-2.084;2022-07-06T02:56:45;1.67;;;0.77;;
41657;SDS011;27347;57.132;-2.084;2022-07-06T02:59:15;2.00;;;0.80;;
41657;SDS011;27347;57.132;-2.084;2022-07-06T03:01:41;1.30;;;0.65;;
41657;SDS011;27347;57.132;-2.084;2022-07-06T03:04:06;2.05;;;0.63;;
41657;SDS011;27347;57.132;-2.084;2022-07-06T03:06:32;1.08;;;0.70;;
41657;SDS011;27347;57.132;-2.084;2022-07-06T03:08:57;2.53;;;0.70;;
41657;SDS011;27347;57.132;-2.084;2022-07-06T03:11:23;0.50;;;0.50;;
41657;SDS011;27347;57.132;-2.084;2022-07-06T03:13:48;0.93;;;0.50;;
41657;SDS011;27347;57.132;-2.084;2022-07-06T03:16:14;2.40;;;0.70;;
41657;SDS011;27347;57.132;-2.084;2022-07-06T03:18:39;1.30;;;0.52;;
41657;SDS011;27347;57.132;-2.084;2022-07-06T03:21:04;0.70;;;0.60;;
41657;SDS011;27347;57.132;-2.084;2022-07-06T03:23:30;0.52;;;0.52;;
41657;SDS011;27347;57.132;-2.084;2022-07-06T03:25:56;2.65;;;0.70;;
41657;SDS011;27347;57.132;-2.084;2022-07-06T03:28:21;0.90;;;0.50;;
41657;SDS011;27347;57.132;-2.084;2022-07-06T03:30:47;0.70;;;0.68;;
41657;SDS011;27347;57.132;-2.084;2022-07-06T03:33:12;0.80;;;0.60;;
41657;SDS011;27347;57.132;-2.084;2022-07-06T03:35:38;0.68;;;0.68;;
41657;SDS011;27347;57.132;-2.084;2022-07-06T03:38:03;2.17;;;0.60;;
41657;SDS011;27347;57.132;-2.084;2022-07-06T03:40:28;1.38;;;0.55;;
41657;SDS011;27347;57.132;-2.084;2022-07-06T03:42:54;2.22;;;0.80;;
41657;SDS011;27347;57.132;-2.084;2022-07-06T03:45:19;1.23;;;0.50;;
41657;SDS011;27347;57.132;-2.084;2022-07-06T03:47:44;0.98;;;0.40;;
41657;SDS011;27347;57.132;-2.084;2022-07-06T03:50:10;2.90;;;0.70;;
41657;SDS011;27347;57.132;-2.084;2022-07-06T03:52:35;0.50;;;0.50;;
41657;SDS011;27347;57.132;-2.084;2022-07-06T03:55:06;0.40;;;0.40;;
41657;SDS011;27347;57.132;-2.084;2022-07-06T03:57:35;0.35;;;0.30;;
41657;SDS011;27347;57.132;-2.084;2022-07-06T04:00:01;3.22;;;0.40;;
41657;SDS011;27347;57.132;-2.084;2022-07-06T04:02:27;0.63;;;0.35;;
41657;SDS011;27347;57.132;-2.084;2022-07-06T04:04:52;1.27;;;0.55;;
41657;SDS011;27347;57.132;-2.084;2022-07-06T04:07:18;0.50;;;0.50;;
41657;SDS011;27347;57.132;-2.084;2022-07-06T04:09:43;0.75;;;0.45;;
41657;SDS011;27347;57.132;-2.084;2022-07-06T04:12:09;0.60;;;0.45;;
41657;SDS011;27347;57.132;-2.084;2022-07-06T04:14:34;0.40;;;0.40;;
41657;SDS011;27347;57.132;-2.084;2022-07-06T04:17:00;0.75;;;0.30;;
41657;SDS011;27347;57.132;-2.084;2022-07-06T04:19:45;0.30;;;0.30;;
41657;SDS011;27347;57.132;-2.084;2022-07-06T04:22:10;0.85;;;0.50;;
41657;SDS011;27347;57.132;-2.084;2022-07-06T04:24:36;1.05;;;0.50;;
41657;SDS011;27347;57.132;-2.084;2022-07-06T04:27:01;0.68;;;0.40;;
41657;SDS011;27347;57.132;-2.084;2022-07-06T04:29:27;0.77;;;0.57;;
41657;SDS011;27347;57.132;-2.084;2022-07-06T04:31:52;0.45;;;0.45;;
41657;SDS011;27347;57.132;-2.084;2022-07-06T04:34:17;1.23;;;0.40;;
41657;SDS011;27347;57.132;-2.084;2022-07-06T04:36:43;0.80;;;0.50;;
41657;SDS011;27347;57.132;-2.084;2022-07-06T04:39:08;0.45;;;0.45;;
41657;SDS011;27347;57.132;-2.084;2022-07-06T04:41:33;0.47;;;0.40;;
41657;SDS011;27347;57.132;-2.084;2022-07-06T04:43:59;0.50;;;0.30;;
41657;SDS011;27347;57.132;-2.084;2022-07-06T04:46:24;0.30;;;0.30;;
41657;SDS011;27347;57.132;-2.084;2022-07-06T04:48:50;0.95;;;0.20;;
41657;SDS011;27347;57.132;-2.084;2022-07-06T04:51:15;0.20;;;0.20;;
41657;SDS011;27347;57.132;-2.084;2022-07-06T04:53:41;0.57;;;0.30;;
41657;SDS011;27347;57.132;-2.084;2022-07-06T04:56:07;1.30;;;0.35;;
41657;SDS011;27347;57.132;-2.084;2022-07-06T04:58:32;0.68;;;0.35;;
41657;SDS011;27347;57.132;-2.084;2022-07-06T05:00:57;0.20;;;0.20;;
41657;SDS011;27347;57.132;-2.084;2022-07-06T05:03:23;0.22;;;0.22;;
41657;SDS011;27347;57.132;-2.084;2022-07-06T05:05:48;0.20;;;0.20;;
41657;SDS011;27347;57.132;-2.084;2022-07-06T05:08:14;0.20;;;0.20;;
41657;SDS011;27347;57.132;-2.084;2022-07-06T05:10:39;0.82;;;0.30;;
41657;SDS011;27347;57.132;-2.084;2022-07-06T05:13:04;0.60;;;0.50;;
41657;SDS011;27347;57.132;-2.084;2022-07-06T05:15:30;0.73;;;0.30;;
41657;SDS011;27347;57.132;-2.084;2022-07-06T05:17:55;1.73;;;0.32;;
41657;SDS011;27347;57.132;-2.084;2022-07-06T05:20:21;0.85;;;0.28;;
41657;SDS011;27347;57.132;-2.084;2022-07-06T05:22:46;0.30;;;0.30;;
41657;SDS011;27347;57.132;-2.084;2022-07-06T05:25:12;2.55;;;0.40;;
41657;SDS011;27347;57.132;-2.084;2022-07-06T05:27:37;0.52;;;0.30;;
41657;SDS011;27347;57.132;-2.084;2022-07-06T05:30:03;0.32;;;0.20;;
41657;SDS011;27347;57.132;-2.084;2022-07-06T05:32:28;0.22;;;0.22;;
41657;SDS011;27347;57.132;-2.084;2022-07-06T05:34:54;0.30;;;0.10;;
41657;SDS011;27347;57.132;-2.084;2022-07-06T05:37:19;0.35;;;0.35;;
41657;SDS011;27347;57.132;-2.084;2022-07-06T05:39:45;1.10;;;0.40;;
41657;SDS011;27347;57.132;-2.084;2022-07-06T05:42:12;0.20;;;0.20;;
41657;SDS011;27347;57.132;-2.084;2022-07-06T05:44:37;3.92;;;0.30;;
41657;SDS011;27347;57.132;-2.084;2022-07-06T05:47:03;0.20;;;0.20;;
41657;SDS011;27347;57.132;-2.084;2022-07-06T05:49:47;0.32;;;0.30;;
41657;SDS011;27347;57.132;-2.084;2022-07-06T05:52:31;0.35;;;0.35;;
41657;SDS011;27347;57.132;-2.084;2022-07-06T05:54:56;0.45;;;0.30;;
41657;SDS011;27347;57.132;-2.084;2022-07-06T05:57:22;0.20;;;0.20;;
41657;SDS011;27347;57.132;-2.084;2022-07-06T05:59:47;0.30;;;0.25;;
41657;SDS011;27347;57.132;-2.084;2022-07-06T06:02:13;0.45;;;0.20;;
41657;SDS011;27347;57.132;-2.084;2022-07-06T06:04:38;0.30;;;0.30;;
41657;SDS011;27347;57.132;-2.084;2022-07-06T06:07:04;0.30;;;0.20;;
41657;SDS011;27347;57.132;-2.084;2022-07-06T06:09:29;3.05;;;0.50;;
41657;SDS011;27347;57.132;-2.084;2022-07-06T06:11:55;0.40;;;0.40;;
41657;SDS011;27347;57.132;-2.084;2022-07-06T06:14:20;0.35;;;0.35;;
41657;SDS011;27347;57.132;-2.084;2022-07-06T06:16:45;0.40;;;0.40;;
41657;SDS011;27347;57.132;-2.084;2022-07-06T06:19:11;0.50;;;0.20;;
41657;SDS011;27347;57.132;-2.084;2022-07-06T06:21:36;0.20;;;0.20;;
41657;SDS011;27347;57.132;-2.084;2022-07-06T06:24:02;0.30;;;0.30;;
41657;SDS011;27347;57.132;-2.084;2022-07-06T06:26:27;0.65;;;0.30;;
41657;SDS011;27347;57.132;-2.084;2022-07-06T06:28:52;0.50;;;0.40;;
41657;SDS011;27347;57.132;-2.084;2022-07-06T06:31:18;0.95;;;0.30;;
41657;SDS011;27347;57.132;-2.084;2022-07-06T06:33:43;0.30;;;0.20;;
41657;SDS011;27347;57.132;-2.084;2022-07-06T06:36:09;0.45;;;0.40;;
41657;SDS011;27347;57.132;-2.084;2022-07-06T06:38:34;0.47;;;0.30;;
41657;SDS011;27347;57.132;-2.084;2022-07-06T06:41:00;0.52;;;0.40;;
41657;SDS011;27347;57.132;-2.084;2022-07-06T06:43:26;1.23;;;0.20;;
41657;SDS011;27347;57.132;-2.084;2022-07-06T06:45:52;7.45;;;0.93;;
41657;SDS011;27347;57.132;-2.084;2022-07-06T06:48:17;0.77;;;0.30;;
41657;SDS011;27347;57.132;-2.084;2022-07-06T06:50:46;0.40;;;0.28;;
41657;SDS011;27347;57.132;-2.084;2022-07-06T06:53:11;0.40;;;0.30;;
41657;SDS011;27347;57.132;-2.084;2022-07-06T06:55:37;0.65;;;0.40;;
41657;SDS011;27347;57.132;-2.084;2022-07-06T06:58:03;1.13;;;0.30;;
41657;SDS011;27347;57.132;-2.084;2022-07-06T07:00:28;0.43;;;0.30;;
41657;SDS011;27347;57.132;-2.084;2022-07-06T07:02:54;0.30;;;0.28;;
41657;SDS011;27347;57.132;-2.084;2022-07-06T07:05:19;0.82;;;0.43;;
41657;SDS011;27347;57.132;-2.084;2022-07-06T07:07:45;1.42;;;0.35;;
41657;SDS011;27347;57.132;-2.084;2022-07-06T07:10:10;1.15;;;0.40;;
41657;SDS011;27347;57.132;-2.084;2022-07-06T07:12:42;1.02;;;0.30;;
41657;SDS011;27347;57.132;-2.084;2022-07-06T07:15:08;2.78;;;0.63;;
41657;SDS011;27347;57.132;-2.084;2022-07-06T07:17:34;1.58;;;0.50;;
41657;SDS011;27347;57.132;-2.084;2022-07-06T07:19:59;0.30;;;0.30;;
41657;SDS011;27347;57.132;-2.084;2022-07-06T07:22:24;2.15;;;0.40;;
41657;SDS011;27347;57.132;-2.084;2022-07-06T07:24:50;1.77;;;0.40;;
41657;SDS011;27347;57.132;-2.084;2022-07-06T07:27:15;0.98;;;0.50;;
41657;SDS011;27347;57.132;-2.084;2022-07-06T07:29:41;2.75;;;0.47;;
41657;SDS011;27347;57.132;-2.084;2022-07-06T07:32:06;1.27;;;0.40;;
41657;SDS011;27347;57.132;-2.084;2022-07-06T07:34:32;0.30;;;0.20;;
41657;SDS011;27347;57.132;-2.084;2022-07-06T07:36:59;1.20;;;0.50;;
41657;SDS011;27347;57.132;-2.084;2022-07-06T07:39:25;0.75;;;0.40;;
41657;SDS011;27347;57.132;-2.084;2022-07-06T07:41:50;0.68;;;0.25;;
41657;SDS011;27347;57.132;-2.084;2022-07-06T07:44:16;0.75;;;0.38;;
41657;SDS011;27347;57.132;-2.084;2022-07-06T07:46:41;1.77;;;0.40;;
41657;SDS011;27347;57.132;-2.084;2022-07-06T07:49:07;3.78;;;0.60;;
41657;SDS011;27347;57.132;-2.084;2022-07-06T07:51:32;1.17;;;0.50;;
41657;SDS011;27347;57.132;-2.084;2022-07-06T07:53:58;1.08;;;0.30;;
41657;SDS011;27347;57.132;-2.084;2022-07-06T07:56:23;2.15;;;0.40;;
41657;SDS011;27347;57.132;-2.084;2022-07-06T07:58:49;1.00;;;0.43;;
41657;SDS011;27347;57.132;-2.084;2022-07-06T08:01:14;1.63;;;0.82;;
41657;SDS011;27347;57.132;-2.084;2022-07-06T08:03:40;0.70;;;0.50;;
41657;SDS011;27347;57.132;-2.084;2022-07-06T08:06:05;1.00;;;0.57;;
41657;SDS011;27347;57.132;-2.084;2022-07-06T08:08:30;1.33;;;1.05;;
41657;SDS011;27347;57.132;-2.084;2022-07-06T08:10:56;1.08;;;0.70;;
41657;SDS011;27347;57.132;-2.084;2022-07-06T08:13:21;1.13;;;0.57;;
41657;SDS011;27347;57.132;-2.084;2022-07-06T08:15:47;1.58;;;0.65;;
41657;SDS011;27347;57.132;-2.084;2022-07-06T08:18:12;1.15;;;0.65;;
41657;SDS011;27347;57.132;-2.084;2022-07-06T08:20:37;2.50;;;0.70;;
41657;SDS011;27347;57.132;-2.084;2022-07-06T08:23:03;0.77;;;0.60;;
41657;SDS011;27347;57.132;-2.084;2022-07-06T08:25:29;1.40;;;0.70;;
41657;SDS011;27347;57.132;-2.084;2022-07-06T08:27:55;2.25;;;0.45;;
41657;SDS011;27347;57.132;-2.084;2022-07-06T08:30:21;2.30;;;1.00;;
41657;SDS011;27347;57.132;-2.084;2022-07-06T08:32:46;5.35;;;0.98;;
41657;SDS011;27347;57.132;-2.084;2022-07-06T08:35:12;2.35;;;0.70;;
41657;SDS011;27347;57.132;-2.084;2022-07-06T08:37:37;3.03;;;0.70;;
41657;SDS011;27347;57.132;-2.084;2022-07-06T08:40:03;2.05;;;0.50;;
41657;SDS011;27347;57.132;-2.084;2022-07-06T08:42:30;2.83;;;0.60;;
41657;SDS011;27347;57.132;-2.084;2022-07-06T08:45:01;1.60;;;0.45;;
41657;SDS011;27347;57.132;-2.084;2022-07-06T08:47:28;1.48;;;0.60;;
41657;SDS011;27347;57.132;-2.084;2022-07-06T08:49:55;1.45;;;0.60;;
41657;SDS011;27347;57.132;-2.084;2022-07-06T08:52:21;0.93;;;0.60;;
41657;SDS011;27347;57.132;-2.084;2022-07-06T08:54:50;2.83;;;0.63;;
41657;SDS011;27347;57.132;-2.084;2022-07-06T08:57:16;6.28;;;1.30;;
41657;SDS011;27347;57.132;-2.084;2022-07-06T08:59:42;1.63;;;0.40;;
41657;SDS011;27347;57.132;-2.084;2022-07-06T09:02:09;0.52;;;0.47;;
41657;SDS011;27347;57.132;-2.084;2022-07-06T09:04:36;1.00;;;0.50;;
41657;SDS011;27347;57.132;-2.084;2022-07-06T09:07:02;2.05;;;0.70;;
41657;SDS011;27347;57.132;-2.084;2022-07-06T09:09:28;2.65;;;0.60;;
41657;SDS011;27347;57.132;-2.084;2022-07-06T09:11:57;0.55;;;0.40;;
41657;SDS011;27347;57.132;-2.084;2022-07-06T09:14:23;6.15;;;1.00;;
41657;SDS011;27347;57.132;-2.084;2022-07-06T09:16:52;0.85;;;0.40;;
41657;SDS011;27347;57.132;-2.084;2022-07-06T09:19:27;0.63;;;0.40;;
41657;SDS011;27347;57.132;-2.084;2022-07-06T09:21:52;2.53;;;0.65;;
41657;SDS011;27347;57.132;-2.084;2022-07-06T09:24:19;1.48;;;0.60;;
41657;SDS011;27347;57.132;-2.084;2022-07-06T09:26:44;1.88;;;0.70;;
41657;SDS011;27347;57.132;-2.084;2022-07-06T09:29:10;3.30;;;0.90;;
41657;SDS011;27347;57.132;-2.084;2022-07-06T09:31:36;0.60;;;0.50;;
41657;SDS011;27347;57.132;-2.084;2022-07-06T09:34:02;1.20;;;0.68;;
41657;SDS011;27347;57.132;-2.084;2022-07-06T09:36:39;0.45;;;0.43;;
41657;SDS011;27347;57.132;-2.084;2022-07-06T09:42:04;0.77;;;0.50;;
41657;SDS011;27347;57.132;-2.084;2022-07-06T09:44:33;0.82;;;0.50;;
41657;SDS011;27347;57.132;-2.084;2022-07-06T09:47:06;0.35;;;0.35;;
41657;SDS011;27347;57.132;-2.084;2022-07-06T09:49:33;0.50;;;0.40;;
41657;SDS011;27347;57.132;-2.084;2022-07-06T09:51:59;0.38;;;0.38;;
41657;SDS011;27347;57.132;-2.084;2022-07-06T09:54:26;0.75;;;0.40;;
41657;SDS011;27347;57.132;-2.084;2022-07-06T09:56:52;1.65;;;0.75;;
41657;SDS011;27347;57.132;-2.084;2022-07-06T09:59:19;1.20;;;0.55;;
41657;SDS011;27347;57.132;-2.084;2022-07-06T10:01:46;0.95;;;0.73;;
41657;SDS011;27347;57.132;-2.084;2022-07-06T10:04:13;2.20;;;0.60;;
41657;SDS011;27347;57.132;-2.084;2022-07-06T10:06:39;1.13;;;0.60;;
41657;SDS011;27347;57.132;-2.084;2022-07-06T10:09:06;1.05;;;0.70;;
41657;SDS011;27347;57.132;-2.084;2022-07-06T10:11:39;0.88;;;0.60;;
41657;SDS011;27347;57.132;-2.084;2022-07-06T10:14:06;0.77;;;0.43;;
41657;SDS011;27347;57.132;-2.084;2022-07-06T10:16:36;0.88;;;0.60;;
41657;SDS011;27347;57.132;-2.084;2022-07-06T10:19:06;1.98;;;0.60;;
41657;SDS011;27347;57.132;-2.084;2022-07-06T10:21:36;1.23;;;0.60;;
41657;SDS011;27347;57.132;-2.084;2022-07-06T10:24:03;1.08;;;0.60;;
41657;SDS011;27347;57.132;-2.084;2022-07-06T10:26:30;1.13;;;0.50;;
41657;SDS011;27347;57.132;-2.084;2022-07-06T10:28:58;1.13;;;0.45;;
41657;SDS011;27347;57.132;-2.084;2022-07-06T10:31:25;2.10;;;0.60;;
41657;SDS011;27347;57.132;-2.084;2022-07-06T10:33:52;1.30;;;0.60;;
41657;SDS011;27347;57.132;-2.084;2022-07-06T10:36:17;0.32;;;0.32;;
41657;SDS011;27347;57.132;-2.084;2022-07-06T10:38:46;1.00;;;0.40;;
41657;SDS011;27347;57.132;-2.084;2022-07-06T10:41:14;3.38;;;0.52;;
41657;SDS011;27347;57.132;-2.084;2022-07-06T10:43:43;1.27;;;0.60;;
41657;SDS011;27347;57.132;-2.084;2022-07-06T10:46:10;0.98;;;0.50;;
41657;SDS011;27347;57.132;-2.084;2022-07-06T10:48:41;0.32;;;0.32;;
41657;SDS011;27347;57.132;-2.084;2022-07-06T10:51:08;1.75;;;0.50;;
41657;SDS011;27347;57.132;-2.084;2022-07-06T10:53:35;2.80;;;0.63;;
41657;SDS011;27347;57.132;-2.084;2022-07-06T10:56:04;2.17;;;0.70;;
41657;SDS011;27347;57.132;-2.084;2022-07-06T10:59:31;1.25;;;0.60;;
41657;SDS011;27347;57.132;-2.084;2022-07-06T11:01:35;0.70;;;0.40;;
41657;SDS011;27347;57.132;-2.084;2022-07-06T11:06:28;0.95;;;0.50;;
41657;SDS011;27347;57.132;-2.084;2022-07-06T11:08:54;0.40;;;0.40;;
41657;SDS011;27347;57.132;-2.084;2022-07-06T11:11:21;1.73;;;0.50;;
41657;SDS011;27347;57.132;-2.084;2022-07-06T11:14:04;1.95;;;0.40;;
41657;SDS011;27347;57.132;-2.084;2022-07-06T11:16:34;0.77;;;0.50;;
41657;SDS011;27347;57.132;-2.084;2022-07-06T11:21:35;0.80;;;0.45;;
41657;SDS011;27347;57.132;-2.084;2022-07-06T11:24:08;0.63;;;0.60;;
41657;SDS011;27347;57.132;-2.084;2022-07-06T11:26:35;0.60;;;0.60;;
41657;SDS011;27347;57.132;-2.084;2022-07-06T11:29:02;2.03;;;0.70;;
41657;SDS011;27347;57.132;-2.084;2022-07-06T11:31:29;5.35;;;0.65;;
41657;SDS011;27347;57.132;-2.084;2022-07-06T11:33:55;0.85;;;0.80;;
41657;SDS011;27347;57.132;-2.084;2022-07-06T11:36:21;1.35;;;0.50;;
41657;SDS011;27347;57.132;-2.084;2022-07-06T11:38:48;1.98;;;0.70;;
41657;SDS011;27347;57.132;-2.084;2022-07-06T11:41:15;0.85;;;0.60;;
41657;SDS011;27347;57.132;-2.084;2022-07-06T11:43:41;1.35;;;0.50;;
41657;SDS011;27347;57.132;-2.084;2022-07-06T11:46:18;1.92;;;0.50;;
41657;SDS011;27347;57.132;-2.084;2022-07-06T11:48:51;1.60;;;0.60;;
41657;SDS011;27347;57.132;-2.084;2022-07-06T11:51:18;0.88;;;0.80;;
41657;SDS011;27347;57.132;-2.084;2022-07-06T11:53:44;1.00;;;0.70;;
41657;SDS011;27347;57.132;-2.084;2022-07-06T11:56:11;1.90;;;0.63;;
41657;SDS011;27347;57.132;-2.084;2022-07-06T11:58:37;0.90;;;0.60;;
41657;SDS011;27347;57.132;-2.084;2022-07-06T12:01:07;0.47;;;0.40;;
41657;SDS011;27347;57.132;-2.084;2022-07-06T12:03:36;2.83;;;0.50;;
41657;SDS011;27347;57.132;-2.084;2022-07-06T12:06:05;0.93;;;0.47;;
41657;SDS011;27347;57.132;-2.084;2022-07-06T12:08:32;1.58;;;0.63;;
41657;SDS011;27347;57.132;-2.084;2022-07-06T12:11:00;1.17;;;0.65;;
41657;SDS011;27347;57.132;-2.084;2022-07-06T12:13:26;1.20;;;0.55;;
41657;SDS011;27347;57.132;-2.084;2022-07-06T12:15:51;0.95;;;0.70;;
41657;SDS011;27347;57.132;-2.084;2022-07-06T12:18:17;1.10;;;0.60;;
41657;SDS011;27347;57.132;-2.084;2022-07-06T12:20:42;0.90;;;0.60;;
41657;SDS011;27347;57.132;-2.084;2022-07-06T12:23:08;0.73;;;0.50;;
41657;SDS011;27347;57.132;-2.084;2022-07-06T12:25:35;1.73;;;0.60;;
41657;SDS011;27347;57.132;-2.084;2022-07-06T12:28:01;2.78;;;0.60;;
41657;SDS011;27347;57.132;-2.084;2022-07-06T12:30:27;1.35;;;0.88;;
41657;SDS011;27347;57.132;-2.084;2022-07-06T12:35:38;0.60;;;0.60;;
41657;SDS011;27347;57.132;-2.084;2022-07-06T12:38:05;1.90;;;0.50;;
41657;SDS011;27347;57.132;-2.084;2022-07-06T12:40:30;1.15;;;0.50;;
41657;SDS011;27347;57.132;-2.084;2022-07-06T12:42:56;0.80;;;0.57;;
41657;SDS011;27347;57.132;-2.084;2022-07-06T12:45:30;0.70;;;0.60;;
41657;SDS011;27347;57.132;-2.084;2022-07-06T12:50:29;0.65;;;0.43;;
41657;SDS011;27347;57.132;-2.084;2022-07-06T12:53:02;0.63;;;0.57;;
41657;SDS011;27347;57.132;-2.084;2022-07-06T12:55:29;3.60;;;0.70;;
41657;SDS011;27347;57.132;-2.084;2022-07-06T12:57:54;1.08;;;0.70;;
41657;SDS011;27347;57.132;-2.084;2022-07-06T13:00:20;0.82;;;0.63;;
41657;SDS011;27347;57.132;-2.084;2022-07-06T13:02:49;1.75;;;0.50;;
41657;SDS011;27347;57.132;-2.084;2022-07-06T13:05:22;0.45;;;0.40;;
41657;SDS011;27347;57.132;-2.084;2022-07-06T13:07:56;2.28;;;0.65;;
41657;SDS011;27347;57.132;-2.084;2022-07-06T13:10:22;1.38;;;0.60;;
41657;SDS011;27347;57.132;-2.084;2022-07-06T13:12:48;0.70;;;0.70;;
41657;SDS011;27347;57.132;-2.084;2022-07-06T13:15:14;2.55;;;0.80;;
41657;SDS011;27347;57.132;-2.084;2022-07-06T13:17:40;0.98;;;0.50;;
41657;SDS011;27347;57.132;-2.084;2022-07-06T13:20:07;0.60;;;0.57;;
41657;SDS011;27347;57.132;-2.084;2022-07-06T13:22:33;1.50;;;0.65;;
41657;SDS011;27347;57.132;-2.084;2022-07-06T13:24:59;1.20;;;0.65;;
41657;SDS011;27347;57.132;-2.084;2022-07-06T13:27:24;1.00;;;0.60;;
41657;SDS011;27347;57.132;-2.084;2022-07-06T13:29:50;1.80;;;1.20;;
41657;SDS011;27347;57.132;-2.084;2022-07-06T13:32:16;1.02;;;0.60;;
41657;SDS011;27347;57.132;-2.084;2022-07-06T13:34:41;1.85;;;1.10;;
41657;SDS011;27347;57.132;-2.084;2022-07-06T13:37:06;2.42;;;0.63;;
41657;SDS011;27347;57.132;-2.084;2022-07-06T13:39:32;0.30;;;0.20;;
41657;SDS011;27347;57.132;-2.084;2022-07-06T13:41:58;0.20;;;0.20;;
41657;SDS011;27347;57.132;-2.084;2022-07-06T13:44:23;0.03;;;0.03;;
41657;SDS011;27347;57.132;-2.084;2022-07-06T13:46:49;0.30;;;0.25;;
41657;SDS011;27347;57.132;-2.084;2022-07-06T13:49:15;0.47;;;0.25;;
41657;SDS011;27347;57.132;-2.084;2022-07-06T13:51:41;1.35;;;0.40;;
41657;SDS011;27347;57.132;-2.084;2022-07-06T13:54:07;0.25;;;0.25;;
41657;SDS011;27347;57.132;-2.084;2022-07-06T13:56:33;0.80;;;0.47;;
41657;SDS011;27347;57.132;-2.084;2022-07-06T13:58:59;0.30;;;0.30;;
41657;SDS011;27347;57.132;-2.084;2022-07-06T14:01:25;2.38;;;0.60;;
41657;SDS011;27347;57.132;-2.084;2022-07-06T14:03:51;0.35;;;0.20;;
41657;SDS011;27347;57.132;-2.084;2022-07-06T14:06:17;0.55;;;0.50;;
41657;SDS011;27347;57.132;-2.084;2022-07-06T14:08:43;0.82;;;0.43;;
41657;SDS011;27347;57.132;-2.084;2022-07-06T14:11:09;4.15;;;0.38;;
41657;SDS011;27347;57.132;-2.084;2022-07-06T14:13:35;0.52;;;0.32;;
41657;SDS011;27347;57.132;-2.084;2022-07-06T14:16:01;0.30;;;0.30;;
41657;SDS011;27347;57.132;-2.084;2022-07-06T14:18:27;0.98;;;0.30;;
41657;SDS011;27347;57.132;-2.084;2022-07-06T14:20:53;2.20;;;0.50;;
41657;SDS011;27347;57.132;-2.084;2022-07-06T14:23:19;0.30;;;0.30;;
41657;SDS011;27347;57.132;-2.084;2022-07-06T14:25:45;1.73;;;0.40;;
41657;SDS011;27347;57.132;-2.084;2022-07-06T14:28:11;0.30;;;0.30;;
41657;SDS011;27347;57.132;-2.084;2022-07-06T14:30:40;0.57;;;0.30;;
41657;SDS011;27347;57.132;-2.084;2022-07-06T14:33:07;0.40;;;0.40;;
41657;SDS011;27347;57.132;-2.084;2022-07-06T14:35:37;0.60;;;0.50;;
41657;SDS011;27347;57.132;-2.084;2022-07-06T14:38:04;1.38;;;0.50;;
41657;SDS011;27347;57.132;-2.084;2022-07-06T14:40:30;0.90;;;0.50;;
41657;SDS011;27347;57.132;-2.084;2022-07-06T14:42:56;1.30;;;0.95;;
41657;SDS011;27347;57.132;-2.084;2022-07-06T14:45:22;0.65;;;0.47;;